地図

経路データ

SID SEASON NUMBER BASIN SUBBASIN NAME ISO_TIME NATURE LAT LON WMO_WIND WMO_PRES WMO_AGENCY TRACK_TYPE DIST2LAND LANDFALL IFLAG USA_AGENCY USA_ATCF_ID USA_LAT USA_LON USA_RECORD USA_STATUS USA_WIND USA_PRES USA_SSHS USA_R34_NE USA_R34_SE USA_R34_SW USA_R34_NW USA_R50_NE USA_R50_SE USA_R50_SW USA_R50_NW USA_R64_NE USA_R64_SE USA_R64_SW USA_R64_NW USA_POCI USA_ROCI USA_RMW USA_EYE TOKYO_LAT TOKYO_LON TOKYO_GRADE TOKYO_WIND TOKYO_PRES TOKYO_R50_DIR TOKYO_R50_LONG TOKYO_R50_SHORT TOKYO_R30_DIR TOKYO_R30_LONG TOKYO_R30_SHORT TOKYO_LAND CMA_LAT CMA_LON CMA_CAT CMA_WIND CMA_PRES HKO_LAT HKO_LON HKO_CAT HKO_WIND HKO_PRES NEWDELHI_LAT NEWDELHI_LON NEWDELHI_GRADE NEWDELHI_WIND NEWDELHI_PRES NEWDELHI_CI NEWDELHI_DP NEWDELHI_POCI REUNION_LAT REUNION_LON REUNION_TYPE REUNION_WIND REUNION_PRES REUNION_TNUM REUNION_CI REUNION_RMW REUNION_R34_NE REUNION_R34_SE REUNION_R34_SW REUNION_R34_NW REUNION_R50_NE REUNION_R50_SE REUNION_R50_SW REUNION_R50_NW REUNION_R64_NE REUNION_R64_SE REUNION_R64_SW REUNION_R64_NW BOM_LAT BOM_LON BOM_TYPE BOM_WIND BOM_PRES BOM_TNUM BOM_CI BOM_RMW BOM_R34_NE BOM_R34_SE BOM_R34_SW BOM_R34_NW BOM_R50_NE BOM_R50_SE BOM_R50_SW BOM_R50_NW BOM_R64_NE BOM_R64_SE BOM_R64_SW BOM_R64_NW BOM_ROCI BOM_POCI BOM_EYE BOM_POS_METHOD BOM_PRES_METHOD NADI_LAT NADI_LON NADI_CAT NADI_WIND NADI_PRES WELLINGTON_LAT WELLINGTON_LON WELLINGTON_WIND WELLINGTON_PRES DS824_LAT DS824_LON DS824_STAGE DS824_WIND DS824_PRES TD9636_LAT TD9636_LON TD9636_STAGE TD9636_WIND TD9636_PRES TD9635_LAT TD9635_LON TD9635_WIND TD9635_PRES TD9635_ROCI NEUMANN_LAT NEUMANN_LON NEUMANN_CLASS NEUMANN_WIND NEUMANN_PRES MLC_LAT MLC_LON MLC_CLASS MLC_WIND MLC_PRES USA_GUST BOM_GUST BOM_GUST_PER REUNION_GUST REUNION_GUST_PER USA_SEAHGT USA_SEARAD_NE USA_SEARAD_SE USA_SEARAD_SW USA_SEARAD_NW STORM_SPEED STORM_DIR
1894345S17061 1895 58 SI MM NOT_NAMED 1894-12-11 06:00:00 NR -16.5000 61.3000 reunion main 553 545 _____O________ -1 -16.5000 61.3000 99 9.90000 1 196
1894345S17061 1895 58 SI MM NOT_NAMED 1894-12-11 09:00:00 NR -16.5537 61.2902 main 545 545 _____P________ -1 -16.5537 61.2902 99 1 0
1894345S17061 1895 58 SI MM NOT_NAMED 1894-12-11 12:00:00 NR -16.6141 61.2790 main 545 537 _____P________ -1 -16.6141 61.2790 99 1 191
1894345S17061 1895 58 SI MM NOT_NAMED 1894-12-11 15:00:00 NR -16.6881 61.2649 main 537 522 _____P________ -1 -16.6881 61.2649 99 2 192
1894345S17061 1895 58 SI MM NOT_NAMED 1894-12-11 18:00:00 NR -16.7826 61.2464 main 522 514 _____P________ -1 -16.7826 61.2464 99 2 191
1894345S17061 1895 58 SI MM NOT_NAMED 1894-12-11 21:00:00 NR -16.9041 61.2222 main 514 506 _____P________ -1 -16.9041 61.2222 99 3 191
1894345S17061 1895 58 SI MM NOT_NAMED 1894-12-12 00:00:00 NR -17.0597 61.1907 main 498 491 _____P________ -1 -17.0597 61.1907 99 4 191
1894345S17061 1895 58 SI MM NOT_NAMED 1894-12-12 03:00:00 NR -17.2561 61.1505 main 483 461 _____P________ -1 -17.2561 61.1505 99 5 192
1894345S17061 1895 58 SI MM NOT_NAMED 1894-12-12 06:00:00 NR -17.5000 61.1000 reunion main 461 432 _____O________ -1 -17.5000 61.1000 99 9.90000 6 191
1894345S17061 1895 58 SI MM NOT_NAMED 1894-12-12 09:00:00 NR -17.7951 61.0384 main 432 412 _____P________ -1 -17.7951 61.0384 99 6 191
1894345S17061 1895 58 SI MM NOT_NAMED 1894-12-12 12:00:00 NR -18.1316 60.9677 main 412 380 _____P________ -1 -18.1316 60.9677 99 7 192
1894345S17061 1895 58 SI MM NOT_NAMED 1894-12-12 15:00:00 NR -18.4968 60.8903 main 380 351 _____P________ -1 -18.4968 60.8903 99 8 191
1894345S17061 1895 58 SI MM NOT_NAMED 1894-12-12 18:00:00 NR -18.8777 60.8091 main 351 327 _____P________ -1 -18.8777 60.8091 99 8 191
1894345S17061 1895 58 SI MM NOT_NAMED 1894-12-12 21:00:00 NR -19.2614 60.7267 main 323 313 _____P________ -1 -19.2614 60.7267 99 8 191
1894345S17061 1895 58 SI MM NOT_NAMED 1894-12-13 00:00:00 NR -19.6349 60.6458 main 302 294 _____P________ -1 -19.6349 60.6458 99 7 192
1894345S17061 1895 58 SI MM NOT_NAMED 1894-12-13 03:00:00 NR -19.9854 60.5693 main 294 281 _____P________ -1 -19.9854 60.5693 99 7 192
1894345S17061 1895 58 SI MM NOT_NAMED 1894-12-13 06:00:00 NR -20.3000 60.5000 reunion main 281 271 _____O________ -1 -20.3000 60.5000 99 9.90000 6 192
1894345S17061 1895 58 SI MM NOT_NAMED 1894-12-13 09:00:00 NR -20.5690 60.4401 main 272 272 _____P________ -1 -20.5690 60.4401 99 5 192
1894345S17061 1895 58 SI MM NOT_NAMED 1894-12-13 12:00:00 NR -20.7954 60.3891 main 276 271 _____P________ -1 -20.7954 60.3891 99 4 192
1894345S17061 1895 58 SI MM NOT_NAMED 1894-12-13 15:00:00 NR -20.9852 60.3458 main 271 271 _____P________ -1 -20.9852 60.3458 99 4 193
1894345S17061 1895 58 SI MM NOT_NAMED 1894-12-13 18:00:00 NR -21.1446 60.3089 main 274 274 _____P________ -1 -21.1446 60.3089 99 3 192
1894345S17061 1895 58 SI MM NOT_NAMED 1894-12-13 21:00:00 NR -21.2797 60.2772 main 282 282 _____P________ -1 -21.2797 60.2772 99 3 194
1894345S17061 1895 58 SI MM NOT_NAMED 1894-12-14 00:00:00 NR -21.3966 60.2493 main 278 278 _____P________ -1 -21.3966 60.2493 99 2 193
1894345S17061 1895 58 SI MM NOT_NAMED 1894-12-14 03:00:00 NR -21.5013 60.2240 main 282 282 _____P________ -1 -21.5013 60.2240 99 2 188
1894345S17061 1895 58 SI MM NOT_NAMED 1894-12-14 06:00:00 NR -21.6000 60.2000 reunion main 287 _____O________ -1 -21.6000 60.2000 99 9.90000 2 0

IBTrACS Databaseについて

本データベースは、米国NOAAが公開する1842年以降の世界の熱帯低気圧のベストトラックデータアーカイブInternational Best Track Archive for Climate Stewardship (IBTrACS)を、ウェブで閲覧しやすい形式に変換したものです。

最終更新日:2021-10-08